Terminal Aerodrome Forecast
Issued by NWS Charleston, WV

Current Version | Previous Version | Graphics & Text | Print | Product List | Glossary On
Versions: 1 2 3 4 5 6 7 8 9 10 11 12 13 14 15 16 17 18 19 20 21 22
000
FTUS41 KRLX 280022 AAA
TAFHTS
TAF AMD
KHTS 280022Z 2800/2824 24006KT P6SM -SHRA BKN100
     FM280100 VRB02KT P6SM BKN100
     FM280900 VRB02KT P6SM SHRA BKN018
     FM281400 20004KT P6SM SHRA OVC035=

USA.gov is the U.S. government's official web portal to all federal, state and local government web resources and services.